Share

Nome, AK

BA Airport (KAKNOME7) Elev 10 ft | 64.51 °N, 165.45 °W | Change Station

Current weather conditions updated 3 minutes ago

Scattered Clouds
Scattered Clouds
37.8 °F
Feels Like 34 °F
N
5.0
Wind Variable Wind from NNW
Gusts 5.0 mph
Sunrise 7:20 AM
Sunset 10:44 PM
Moon Waning Gibbous

Today is forecast to be Cooler than yesterday.

Pressure 29.58 in
Visibility 10.0 miles
Clouds Scattered Clouds 6000 ft
Windchill 34 °F
Dew Point 27 °F
Humidity 64%
Rainfall 0.00 in
Snow Depth Not available.
UV 3 out of 16
Pollen Not available.
Air Quality Not available.
Flu Activity Sporadic
METAR PAOM 172053Z 34004KT 10SM SCT060 03/M04 A2958 RMK SLP016 T00281044 56013 VIA AUTODIAL

More Conditions Fewer Conditions

Pressure 29.58 in
Visibility 10.0 miles
Clouds Scattered Clouds 6000 ft
Windchill 34 °F
Dew Point 27 °F
Humidity 64%
Rainfall 0.00 in
Snow Depth Not available.
UV 3 out of 16
Pollen Not available.
Air Quality Not available.
Flu Activity Sporadic
METAR PAOM 172053Z 34004KT 10SM SCT060 03/M04 A2958 RMK SLP016 T00281044 56013 VIA AUTODIAL

More Conditions Fewer Conditions

10-Day Forecast

Almanac

Astronomy

Apr. 17, 2014 Rise Set
Actual Time 7:20 AM AKDT 10:44 PM AKDT
Civil Twilight 6:22 AM AKDT 11:42 PM AKDT
Nautical Twilight 4:53 AM AKDT 1:14 AM AKDT
Astronomical Twilight Sun does not rise Sun does not rise
Moon 1:19 AM AKDT 8:17 AM AKDT
Length of Visible Light 17h 20m
Length of Day
15h 24m
Tomorrow will be 6m 46s longer.
Waning Gibbous, 92% of the Moon is Illuminated
Today
Waning Gibbous
Apr 22
Last Quarter
Apr 29
New
May 6
First Quarter
May 14
Full

Today's Extremes

State Highs State Lows

Community

  • Morning Light
    Morning Light
  • New Day
    New Day
  • Lake Michigan Sunrise
    Lake Michigan Sunrise
  • sunset from izmir, narlıdere
    sunset from izmir, narlıdere
  • oregon cherry
    oregon cherry

WunderPhotos

Upload Photos

1,702,140 photos uploaded!

Nearby

Snow Depth

Station Depth Elevation
Rocky Point 6 in 500 ft
Pargon Creek 4 in 300 ft
Gobblers Knob 8 in 2030 ft
Coldfoot 27 in 1040 ft
Susitna Valley High 20 in 375 ft

Coastal Water Temperatures

Place Temperature
No Stations Reporting

Earthquake Activity

City Distance Mag. Time & Date
No recent earthquake activity has been reported nearby.
Minimum magnitude displayed is 2.5.

Nearby Weather Stations

Station Location Temp. Windchill Dew Point Humidity Wind Precip. Elev Updated Type
BA Airport, Nome, AK 37.8 °F 34 °F 27 °F 64% NNW  at  5.0 mph 0.00 in / hr 10 ft 1:30 PM AKDT Normal
Dexter, Nome, AK 39.5 °F 40 °F 25 °F 55% SE  at  1.0 mph 0.00 in / hr 56 ft 1:30 PM AKDT Normal

Show More Stations Show Fewer Stations

What do you think?

We're not finished. Please let us know what you like, what you don't like, and what you are still missing.